Time,TemperatureF,DewpointF,PressureIn,WindDirection,WindDirectionDegrees,WindSpeedMPH,WindSpeedGustMPH,Humidity,HourlyPrecipIn,Conditions,Clouds,dailyrainin,SolarRadiationWatts/m^2,SoftwareType,DateUTC
2013-03-13 00:02:00,31.0,24.0,-100.00,SW,217,5.0,7.0,74,0.00,,,0.00,0.000000,,2013-03-13 07:02:00,
2013-03-13 00:12:00,31.0,24.0,-100.00,SW,217,5.0,7.0,74,0.00,,,0.00,0.000000,,2013-03-13 07:12:00,
2013-03-13 00:43:00,27.0,23.0,-100.00,East,96,1.0,6.0,85,0.00,,,0.00,0.000000,,2013-03-13 07:43:00,
2013-03-13 00:52:00,27.0,23.0,-100.00,East,96,1.0,6.0,85,0.00,,,0.00,0.000000,,2013-03-13 07:52:00,
2013-03-13 01:03:00,27.0,23.0,-100.00,East,96,1.0,6.0,85,0.00,,,0.00,0.000000,,2013-03-13 08:03:00,
2013-03-13 01:12:00,27.0,23.0,-100.00,East,96,1.0,6.0,85,0.00,,,0.00,0.000000,,2013-03-13 08:12:00,
2013-03-13 01:43:00,25.0,21.0,-100.00,ESE,111,0.0,2.0,86,0.00,,,0.00,0.000000,,2013-03-13 08:43:00,
2013-03-13 01:53:00,25.0,21.0,-100.00,ESE,111,0.0,2.0,86,0.00,,,0.00,0.000000,,2013-03-13 08:53:00,
2013-03-13 02:02:00,25.0,21.0,-100.00,ESE,111,0.0,2.0,86,0.00,,,0.00,0.000000,,2013-03-13 09:02:00,
2013-03-13 02:12:00,25.0,21.0,-100.00,ESE,111,0.0,2.0,86,0.00,,,0.00,0.000000,,2013-03-13 09:12:00,
2013-03-13 02:42:00,24.0,21.0,-100.00,NE,55,0.0,2.0,89,0.00,,,0.00,0.000000,,2013-03-13 09:42:00,
2013-03-13 02:52:00,24.0,21.0,-100.00,NE,55,0.0,2.0,89,0.00,,,0.00,0.000000,,2013-03-13 09:52:00,
2013-03-13 03:01:00,24.0,21.0,-100.00,NE,55,0.0,2.0,89,0.00,,,0.00,0.000000,,2013-03-13 10:01:00,
2013-03-13 03:11:00,24.0,21.0,-100.00,NE,55,0.0,2.0,89,0.00,,,0.00,0.000000,,2013-03-13 10:11:00,
2013-03-13 03:42:00,23.0,20.0,-100.00,NNE,18,0.0,3.0,88,0.00,,,-99.99,0.000000,,2013-03-13 10:42:00,
2013-03-13 03:52:00,23.0,20.0,-100.00,NNE,18,0.0,3.0,88,0.00,,,-99.99,0.000000,,2013-03-13 10:52:00,
2013-03-13 04:02:00,23.0,20.0,-100.00,NNE,18,0.0,3.0,88,0.00,,,-99.99,0.000000,,2013-03-13 11:02:00,
2013-03-13 04:12:00,23.0,20.0,-100.00,NNE,18,0.0,3.0,88,0.00,,,-99.99,0.000000,,2013-03-13 11:12:00,
2013-03-13 04:32:00,23.0,20.0,-100.00,SSW,204,1.0,2.0,89,0.00,,,0.00,0.000000,,2013-03-13 11:32:00,
2013-03-13 04:42:00,23.0,20.0,-100.00,SSW,204,1.0,2.0,89,0.00,,,0.00,0.000000,,2013-03-13 11:42:00,
2013-03-13 04:52:00,23.0,20.0,-100.00,SSW,204,1.0,2.0,89,0.00,,,0.00,0.000000,,2013-03-13 11:52:00,
2013-03-13 05:02:00,23.0,20.0,-100.00,SSW,204,1.0,2.0,89,0.00,,,0.00,0.000000,,2013-03-13 12:02:00,
2013-03-13 05:12:00,23.0,20.0,-100.00,SSW,204,1.0,2.0,89,0.00,,,0.00,0.000000,,2013-03-13 12:12:00,
2013-03-13 05:42:00,23.0,20.0,-100.00,SSW,213,2.0,3.0,88,0.00,,,0.00,0.000000,,2013-03-13 12:42:00,
2013-03-13 05:53:00,23.0,20.0,-100.00,SSW,213,2.0,3.0,88,0.00,,,0.00,0.000000,,2013-03-13 12:53:00,
2013-03-13 06:02:00,23.0,20.0,-100.00,SSW,213,2.0,3.0,88,0.00,,,0.00,0.000000,,2013-03-13 13:02:00,
2013-03-13 06:11:00,23.0,20.0,-100.00,SSW,213,2.0,3.0,88,0.00,,,0.00,0.000000,,2013-03-13 13:11:00,
2013-03-13 06:33:00,22.0,19.0,-100.00,East,86,0.0,3.0,89,0.00,,,0.00,0.000000,,2013-03-13 13:33:00,
2013-03-13 06:43:00,22.0,19.0,-100.00,East,86,0.0,3.0,89,0.00,,,0.00,0.000000,,2013-03-13 13:43:00,
2013-03-13 06:52:00,22.0,19.0,-100.00,East,86,0.0,3.0,89,0.00,,,0.00,0.000000,,2013-03-13 13:52:00,
2013-03-13 07:02:00,22.0,19.0,-100.00,East,86,0.0,3.0,89,0.00,,,0.00,0.000000,,2013-03-13 14:02:00,
2013-03-13 07:11:00,22.0,19.0,-100.00,East,86,0.0,3.0,89,0.00,,,0.00,0.000000,,2013-03-13 14:11:00,
2013-03-13 07:52:00,26.0,22.0,-100.00,East,81,2.0,3.0,86,0.00,,,0.00,25.000000,,2013-03-13 14:52:00,
2013-03-13 08:02:00,26.0,22.0,-100.00,East,81,2.0,3.0,86,0.00,,,0.00,25.000000,,2013-03-13 15:02:00,
2013-03-13 08:11:00,26.0,22.0,-100.00,East,81,2.0,3.0,86,0.00,,,0.00,25.000000,,2013-03-13 15:11:00,
2013-03-13 08:43:00,39.0,30.0,-100.00,NE,45,0.0,2.0,70,0.00,,,0.00,228.000000,,2013-03-13 15:43:00,
2013-03-13 08:52:00,39.0,30.0,-100.00,NE,45,0.0,2.0,70,0.00,,,0.00,228.000000,,2013-03-13 15:52:00,
2013-03-13 09:02:00,39.0,30.0,-100.00,NE,45,0.0,2.0,70,0.00,,,0.00,228.000000,,2013-03-13 16:02:00,
2013-03-13 09:12:00,39.0,30.0,-100.00,NE,45,0.0,2.0,70,0.00,,,0.00,228.000000,,2013-03-13 16:12:00,
2013-03-13 09:42:00,54.0,25.0,-100.00,SE,141,5.0,8.0,32,0.00,,,0.00,434.000000,,2013-03-13 16:42:00,
2013-03-13 09:52:00,54.0,25.0,-100.00,SE,141,5.0,8.0,32,0.00,,,0.00,434.000000,,2013-03-13 16:52:00,
2013-03-13 10:02:00,54.0,25.0,-100.00,SE,141,5.0,8.0,32,0.00,,,0.00,434.000000,,2013-03-13 17:02:00,
2013-03-13 10:11:00,54.0,25.0,-100.00,SE,141,5.0,8.0,32,0.00,,,0.00,434.000000,,2013-03-13 17:11:00,
2013-03-13 10:42:00,58.0,21.0,-100.00,SE,142,6.0,10.0,24,0.00,,,0.00,627.000000,,2013-03-13 17:42:00,
2013-03-13 10:53:00,58.0,21.0,-100.00,SE,142,6.0,10.0,24,0.00,,,0.00,627.000000,,2013-03-13 17:53:00,
2013-03-13 11:02:00,58.0,21.0,-100.00,SE,142,6.0,10.0,24,0.00,,,0.00,627.000000,,2013-03-13 18:02:00,
2013-03-13 11:12:00,58.0,21.0,-100.00,SE,142,6.0,10.0,24,0.00,,,0.00,627.000000,,2013-03-13 18:12:00,
2013-03-13 11:43:00,61.0,22.0,-100.00,South,178,5.0,13.0,22,0.00,,,0.00,772.000000,,2013-03-13 18:43:00,
2013-03-13 11:52:00,61.0,22.0,-100.00,South,178,5.0,13.0,22,0.00,,,0.00,772.000000,,2013-03-13 18:52:00,
2013-03-13 12:02:00,61.0,22.0,-100.00,South,178,5.0,13.0,22,0.00,,,0.00,772.000000,,2013-03-13 19:02:00,
2013-03-13 12:12:00,61.0,22.0,-100.00,South,178,5.0,13.0,22,0.00,,,0.00,772.000000,,2013-03-13 19:12:00,
2013-03-13 12:43:00,63.0,21.0,-100.00,SSW,212,5.0,12.0,20,0.00,,,0.00,856.000000,,2013-03-13 19:43:00,
2013-03-13 12:53:00,63.0,21.0,-100.00,SSW,212,5.0,12.0,20,0.00,,,0.00,856.000000,,2013-03-13 19:53:00,
2013-03-13 13:02:00,63.0,21.0,-100.00,SSW,212,5.0,12.0,20,0.00,,,0.00,856.000000,,2013-03-13 20:02:00,
2013-03-13 13:11:00,63.0,21.0,-100.00,SSW,212,5.0,12.0,20,0.00,,,0.00,856.000000,,2013-03-13 20:11:00,
2013-03-13 13:32:00,64.0,22.0,-100.00,SSW,204,7.0,18.0,20,0.00,,,0.00,874.000000,,2013-03-13 20:32:00,
2013-03-13 13:42:00,64.0,22.0,-100.00,SSW,204,7.0,18.0,20,0.00,,,0.00,874.000000,,2013-03-13 20:42:00,
2013-03-13 13:52:00,64.0,22.0,-100.00,SSW,204,7.0,18.0,20,0.00,,,0.00,874.000000,,2013-03-13 20:52:00,
2013-03-13 14:02:00,64.0,22.0,-100.00,SSW,204,7.0,18.0,20,0.00,,,0.00,874.000000,,2013-03-13 21:02:00,
2013-03-13 14:11:00,64.0,22.0,-100.00,SSW,204,7.0,18.0,20,0.00,,,0.00,874.000000,,2013-03-13 21:11:00,
2013-03-13 14:42:00,65.0,22.0,-100.00,West,266,4.0,13.0,19,0.00,,,0.00,827.000000,,2013-03-13 21:42:00,
2013-03-13 14:52:00,65.0,22.0,-100.00,West,266,4.0,13.0,19,0.00,,,0.00,827.000000,,2013-03-13 21:52:00,
2013-03-13 15:02:00,65.0,22.0,-100.00,West,266,4.0,13.0,19,0.00,,,0.00,827.000000,,2013-03-13 22:02:00,
2013-03-13 15:12:00,65.0,22.0,-100.00,West,266,4.0,13.0,19,0.00,,,0.00,827.000000,,2013-03-13 22:12:00,
2013-03-13 15:42:00,68.0,23.0,-100.00,West,271,4.0,9.0,18,0.00,,,0.00,715.000000,,2013-03-13 22:42:00,
2013-03-13 15:52:00,68.0,23.0,-100.00,West,271,4.0,9.0,18,0.00,,,0.00,715.000000,,2013-03-13 22:52:00,
2013-03-13 16:02:00,68.0,23.0,-100.00,West,271,4.0,9.0,18,0.00,,,0.00,715.000000,,2013-03-13 23:02:00,
2013-03-13 16:12:00,68.0,23.0,-100.00,West,271,4.0,9.0,18,0.00,,,0.00,715.000000,,2013-03-13 23:12:00,
2013-03-13 16:43:00,67.0,25.0,-100.00,North,9,10.0,16.0,20,0.00,,,0.00,550.000000,,2013-03-13 23:43:00,
2013-03-13 16:52:00,67.0,25.0,-100.00,North,9,10.0,16.0,20,0.00,,,0.00,550.000000,,2013-03-13 23:52:00,
2013-03-13 17:02:00,67.0,25.0,-100.00,North,9,10.0,16.0,20,0.00,,,0.00,550.000000,,2013-03-14 00:02:00,
2013-03-13 17:12:00,67.0,25.0,-100.00,North,9,10.0,16.0,20,0.00,,,0.00,550.000000,,2013-03-14 00:12:00,
2013-03-13 17:33:00,64.0,24.0,-100.00,ENE,69,10.0,14.0,22,0.00,,,0.00,348.000000,,2013-03-14 00:33:00,
2013-03-13 17:42:00,64.0,24.0,-100.00,ENE,69,10.0,14.0,22,0.00,,,0.00,348.000000,,2013-03-14 00:42:00,
2013-03-13 17:52:00,64.0,24.0,-100.00,ENE,69,10.0,14.0,22,0.00,,,0.00,348.000000,,2013-03-14 00:52:00,
2013-03-13 18:02:00,64.0,24.0,-100.00,ENE,69,10.0,14.0,22,0.00,,,0.00,348.000000,,2013-03-14 01:02:00,
2013-03-13 18:12:00,64.0,24.0,-100.00,ENE,69,10.0,14.0,22,0.00,,,0.00,348.000000,,2013-03-14 01:12:00,
2013-03-13 18:32:00,60.0,23.0,-100.00,ESE,120,6.0,12.0,24,0.00,,,0.00,134.000000,,2013-03-14 01:32:00,
2013-03-13 18:42:00,60.0,23.0,-100.00,ESE,120,6.0,12.0,24,0.00,,,0.00,134.000000,,2013-03-14 01:42:00,
2013-03-13 18:53:00,60.0,23.0,-100.00,ESE,120,6.0,12.0,24,0.00,,,0.00,134.000000,,2013-03-14 01:53:00,
2013-03-13 19:02:00,60.0,23.0,-100.00,ESE,120,6.0,12.0,24,0.00,,,0.00,134.000000,,2013-03-14 02:02:00,
2013-03-13 19:11:00,60.0,23.0,-100.00,ESE,120,6.0,12.0,24,0.00,,,0.00,134.000000,,2013-03-14 02:11:00,
2013-03-13 20:01:00,51.0,22.0,-100.00,SE,134,4.0,8.0,32,0.00,,,0.00,4.000000,,2013-03-14 03:01:00,
2013-03-13 20:12:00,51.0,22.0,-100.00,SE,134,4.0,8.0,32,0.00,,,0.00,4.000000,,2013-03-14 03:12:00,
2013-03-13 20:33:00,40.0,25.0,-100.00,WNW,283,2.0,4.0,54,0.00,,,0.00,0.000000,,2013-03-14 03:33:00,
2013-03-13 20:42:00,40.0,25.0,-100.00,WNW,283,2.0,4.0,54,0.00,,,0.00,0.000000,,2013-03-14 03:42:00,
2013-03-13 20:52:00,40.0,25.0,-100.00,WNW,283,2.0,4.0,54,0.00,,,0.00,0.000000,,2013-03-14 03:52:00,
2013-03-13 21:11:00,40.0,25.0,-100.00,WNW,283,2.0,4.0,54,0.00,,,0.00,0.000000,,2013-03-14 04:11:00,
2013-03-13 21:32:00,34.0,24.0,-100.00,SW,215,3.0,6.0,66,0.00,,,0.00,0.000000,,2013-03-14 04:32:00,
2013-03-13 22:02:00,34.0,24.0,-100.00,SW,215,3.0,6.0,66,0.00,,,0.00,0.000000,,2013-03-14 05:02:00,
2013-03-13 22:33:00,31.0,23.0,-100.00,SSW,210,5.0,8.0,72,0.00,,,0.00,0.000000,,2013-03-14 05:33:00,
2013-03-13 23:02:00,31.0,23.0,-100.00,SSW,210,5.0,8.0,72,0.00,,,0.00,0.000000,,2013-03-14 06:02:00,
2013-03-13 23:12:00,31.0,23.0,-100.00,SSW,210,5.0,8.0,72,0.00,,,0.00,0.000000,,2013-03-14 06:12:00,
2013-03-13 23:33:00,31.0,23.0,-100.00,West,261,2.0,8.0,73,0.00,,,0.00,0.000000,,2013-03-14 06:33:00,
2013-03-13 23:42:00,31.0,23.0,-100.00,West,261,2.0,8.0,73,0.00,,,0.00,0.000000,,2013-03-14 06:42:00,
2013-03-13 23:52:00,31.0,23.0,-100.00,West,261,2.0,8.0,73,0.00,,,0.00,0.000000,,2013-03-14 06:52:00,